createdAt,value
2022-11-02T05:00:38.746Z,14.13
2022-11-02T05:03:12.306Z,14.09
2022-11-02T05:05:43.070Z,14.06
2022-11-02T05:08:12.486Z,14.03
2022-11-02T05:10:41.704Z,14.00
2022-11-02T05:13:11.993Z,14.01
2022-11-02T05:15:41.784Z,14.00
2022-11-02T05:18:16.143Z,13.98
2022-11-02T05:20:59.794Z,13.95
2022-11-02T05:23:30.542Z,13.89
2022-11-02T05:26:03.842Z,13.83
2022-11-02T05:28:34.581Z,13.81
2022-11-02T05:31:05.893Z,13.82
2022-11-02T05:33:36.680Z,13.82
2022-11-02T05:36:13.271Z,13.84
2022-11-02T05:38:44.209Z,13.82
2022-11-02T05:41:14.507Z,13.79
2022-11-02T05:43:43.939Z,13.74
2022-11-02T05:46:17.192Z,13.75
2022-11-02T05:48:46.488Z,13.76
2022-11-02T05:51:15.704Z,13.74
2022-11-02T05:53:44.758Z,13.74
2022-11-02T05:56:14.847Z,13.69
2022-11-02T05:58:43.260Z,13.68
2022-11-02T06:01:12.263Z,13.71
2022-11-02T06:03:41.372Z,13.75
2022-11-02T06:06:12.744Z,13.74
2022-11-02T06:08:41.780Z,13.76
2022-11-02T06:11:15.257Z,13.77
2022-11-02T06:13:44.700Z,13.75
2022-11-02T06:16:21.478Z,13.77
2022-11-02T06:18:52.705Z,13.75
2022-11-02T06:21:22.229Z,13.76
2022-11-02T06:23:51.100Z,13.80
2022-11-02T06:26:20.076Z,13.81
2022-11-02T06:28:49.214Z,13.81
2022-11-02T06:31:18.187Z,13.88
2022-11-02T06:33:47.334Z,13.88
2022-11-02T06:36:16.348Z,13.89
2022-11-02T06:38:46.451Z,13.85
2022-11-02T06:41:15.631Z,13.85
2022-11-02T06:43:44.658Z,13.86
2022-11-02T06:46:13.650Z,13.89
2022-11-02T06:48:42.343Z,13.87
2022-11-02T06:51:10.904Z,13.87
2022-11-02T06:53:39.255Z,13.91
2022-11-02T06:56:08.254Z,13.95
2022-11-02T06:58:37.277Z,13.98
2022-11-02T07:01:07.756Z,14.02
2022-11-02T07:03:36.973Z,14.08
2022-11-02T07:06:11.134Z,14.08
2022-11-02T07:08:43.474Z,14.06
2022-11-02T07:11:19.067Z,14.05
2022-11-02T07:13:48.158Z,14.07
2022-11-02T07:16:17.354Z,14.08
2022-11-02T07:18:46.207Z,14.08
2022-11-02T07:21:15.559Z,14.11
2022-11-02T07:23:44.509Z,14.14
2022-11-02T07:26:13.222Z,14.17
2022-11-02T07:28:42.385Z,14.13
2022-11-02T07:31:11.067Z,14.12
2022-11-02T07:33:39.553Z,14.10
2022-11-02T07:36:09.031Z,14.13
2022-11-02T07:38:38.186Z,14.15
2022-11-02T07:41:07.571Z,14.16
2022-11-02T07:43:38.594Z,14.15
2022-11-02T07:46:29.112Z,14.18
2022-11-02T07:48:58.171Z,14.15
2022-11-02T07:51:27.453Z,14.13
2022-11-02T07:53:55.784Z,14.14
2022-11-02T07:56:24.237Z,14.12
2022-11-02T07:58:53.328Z,14.10
2022-11-02T08:01:22.134Z,14.08
2022-11-02T08:03:51.856Z,14.08
2022-11-02T08:06:20.976Z,14.10
2022-11-02T08:08:50.099Z,14.10
2022-11-02T08:11:38.957Z,14.11
2022-11-02T08:14:08.548Z,14.12
2022-11-02T08:16:37.246Z,14.10
2022-11-02T08:19:05.914Z,14.11
2022-11-02T08:21:34.831Z,14.11
2022-11-02T08:24:03.157Z,14.12
2022-11-02T08:26:52.348Z,14.13
2022-11-02T08:29:41.789Z,14.16
2022-11-02T08:32:27.973Z,14.20
2022-11-02T08:35:15.334Z,14.24
2022-11-02T08:38:02.678Z,14.24
2022-11-02T08:40:50.431Z,14.30
2022-11-02T08:43:36.929Z,14.34
2022-11-02T08:46:23.942Z,14.37
2022-11-02T08:49:10.594Z,14.42
2022-11-02T08:51:57.338Z,14.41
2022-11-02T08:54:44.488Z,14.40
2022-11-02T08:57:30.853Z,14.41
2022-11-02T09:00:19.045Z,14.46
2022-11-02T09:03:09.296Z,14.50
2022-11-02T09:06:01.126Z,14.54
2022-11-02T09:08:47.551Z,14.59
2022-11-02T09:11:34.039Z,14.60
2022-11-02T09:14:19.971Z,14.59
2022-11-02T09:17:06.297Z,14.61
2022-11-02T09:19:52.087Z,14.59
2022-11-02T09:22:37.915Z,14.57
2022-11-02T09:25:24.322Z,14.61
2022-11-02T09:28:11.196Z,14.57
2022-11-02T09:30:58.307Z,14.53
2022-11-02T09:33:44.097Z,14.56
2022-11-02T09:36:30.809Z,14.59
2022-11-02T09:39:19.214Z,14.58
2022-11-02T09:42:19.166Z,14.60
2022-11-02T09:45:08.421Z,14.56
2022-11-02T09:48:22.028Z,14.52
2022-11-02T09:51:22.332Z,14.53
2022-11-02T09:54:13.259Z,14.53
2022-11-02T09:57:07.032Z,14.57
2022-11-02T09:59:53.662Z,14.58
2022-11-02T10:02:58.459Z,14.56
2022-11-02T10:05:55.400Z,14.53
2022-11-02T10:08:41.476Z,14.51
2022-11-02T10:11:41.762Z,14.49
2022-11-02T10:14:53.653Z,14.42
2022-11-02T10:17:41.916Z,14.37
2022-11-02T10:20:37.875Z,14.34
2022-11-02T10:23:48.308Z,14.31
2022-11-02T10:26:38.010Z,14.29
2022-11-02T10:29:45.763Z,14.26
2022-11-02T10:32:36.025Z,14.24
2022-11-02T10:39:00.820Z,14.24
2022-11-02T10:42:11.637Z,14.23
2022-11-02T10:45:09.405Z,14.23
2022-11-02T10:48:31.158Z,14.22
2022-11-02T10:51:18.334Z,14.22
2022-11-02T10:54:12.469Z,14.23
2022-11-02T10:56:59.312Z,14.23
2022-11-02T10:59:46.213Z,14.26
2022-11-02T11:02:32.683Z,14.27
2022-11-02T11:05:20.301Z,14.30
2022-11-02T11:08:07.693Z,14.32
2022-11-02T11:10:54.898Z,14.38
2022-11-02T11:20:40.597Z,14.49
2022-11-02T11:23:27.980Z,14.57
2022-11-02T11:26:28.933Z,14.64
2022-11-02T11:29:24.222Z,14.73
2022-11-02T11:32:18.308Z,14.78
2022-11-02T11:35:08.314Z,14.84
2022-11-02T11:38:01.703Z,14.87
2022-11-02T11:40:54.983Z,14.92
2022-11-02T11:43:42.702Z,14.96
2022-11-02T11:46:44.170Z,15.00
2022-11-02T11:49:55.025Z,15.10
2022-11-02T11:52:40.405Z,15.20
2022-11-02T11:55:29.190Z,15.26
2022-11-02T11:58:32.703Z,15.30
2022-11-02T12:01:20.329Z,15.34
2022-11-02T12:04:09.135Z,15.42
2022-11-02T12:07:05.791Z,15.49
2022-11-02T12:10:09.264Z,15.49
2022-11-02T12:13:07.824Z,15.51
2022-11-02T12:16:03.396Z,15.49
2022-11-02T12:18:50.376Z,15.48
2022-11-02T12:22:00.589Z,15.48
2022-11-02T12:25:12.201Z,15.54
2022-11-02T12:28:23.090Z,15.57
2022-11-02T12:31:51.117Z,15.60
2022-11-02T12:35:27.922Z,15.66
2022-11-02T12:38:43.766Z,15.69
2022-11-02T12:41:57.069Z,15.68
2022-11-02T12:44:43.784Z,15.68
2022-11-02T12:47:55.888Z,15.62
2022-11-02T12:50:53.180Z,15.49
2022-11-02T12:54:01.689Z,15.37
2022-11-02T12:56:56.026Z,15.30
2022-11-02T12:59:45.381Z,15.26
2022-11-02T13:02:42.225Z,15.26
2022-11-02T13:05:38.604Z,15.25
2022-11-02T13:08:41.007Z,15.25
2022-11-02T13:11:52.198Z,15.23
2022-11-02T13:14:52.207Z,15.15
2022-11-02T13:17:47.709Z,15.11
2022-11-02T13:20:50.288Z,15.10
2022-11-02T13:23:43.789Z,15.06
2022-11-02T13:26:39.426Z,15.01
2022-11-02T13:29:46.603Z,14.94
2022-11-02T13:32:39.234Z,14.90
2022-11-02T13:35:30.276Z,14.87
2022-11-02T13:38:41.618Z,14.83
2022-11-02T13:41:39.792Z,14.79
2022-11-02T13:45:02.703Z,14.77
2022-11-02T13:47:52.099Z,14.72
2022-11-02T13:50:47.279Z,14.67
2022-11-02T13:53:39.129Z,14.59
2022-11-02T13:56:30.200Z,14.52
2022-11-02T13:59:30.274Z,14.46
2022-11-02T14:02:20.887Z,14.42
2022-11-02T14:05:09.164Z,14.34
2022-11-02T14:08:02.473Z,14.28
2022-11-02T14:11:07.627Z,14.21
2022-11-02T14:13:59.212Z,14.14
2022-11-02T14:16:51.660Z,14.06
2022-11-02T14:19:44.668Z,14.01
2022-11-02T14:22:32.353Z,13.93
2022-11-02T14:25:19.120Z,13.85
2022-11-02T14:28:26.281Z,13.78
2022-11-02T14:31:18.207Z,13.72
2022-11-02T14:34:19.824Z,13.68
2022-11-02T14:37:21.414Z,13.64
2022-11-02T14:40:11.024Z,13.58
2022-11-02T14:43:17.815Z,13.54
2022-11-02T14:46:32.371Z,13.49
2022-11-02T14:49:23.885Z,13.42
2022-11-02T14:52:15.823Z,13.35
2022-11-02T14:55:10.025Z,13.29
2022-11-02T14:58:05.328Z,13.24
2022-11-02T15:00:59.067Z,13.15
2022-11-02T15:03:46.178Z,13.10
2022-11-02T15:06:32.392Z,13.05
2022-11-02T15:09:56.680Z,13.02
2022-11-02T15:12:44.686Z,12.97
2022-11-02T15:15:34.252Z,12.92
2022-11-02T15:18:37.451Z,12.88
2022-11-02T15:21:23.648Z,12.82
2022-11-02T15:24:17.047Z,12.76
2022-11-02T15:27:03.884Z,12.69
2022-11-02T15:29:52.505Z,12.62
2022-11-02T15:32:44.704Z,12.57
2022-11-02T15:35:35.281Z,12.53
2022-11-02T15:38:33.828Z,12.48
2022-11-02T15:41:50.889Z,12.42
2022-11-02T15:44:52.727Z,12.38
2022-11-02T15:47:53.847Z,12.34
2022-11-02T15:50:59.504Z,12.31
2022-11-02T15:54:07.133Z,12.30
2022-11-02T15:56:59.927Z,12.34
2022-11-02T16:00:14.315Z,12.39
2022-11-02T16:03:06.656Z,12.46
2022-11-02T16:05:53.648Z,12.50
2022-11-02T16:08:40.355Z,12.52
2022-11-02T16:11:27.866Z,12.53
2022-11-02T16:14:18.615Z,12.58
2022-11-02T16:17:05.289Z,12.59
2022-11-02T16:20:09.696Z,12.58
2022-11-02T16:23:02.697Z,12.55
2022-11-02T16:25:52.995Z,12.51
2022-11-02T16:28:40.068Z,12.49
2022-11-02T16:31:31.797Z,12.48
2022-11-02T16:34:30.496Z,12.49
2022-11-02T16:37:19.788Z,12.55
2022-11-02T16:40:07.702Z,12.58
2022-11-02T16:42:55.198Z,12.63
2022-11-02T16:45:44.013Z,12.71
2022-11-02T16:48:33.370Z,12.74
2022-11-02T16:51:20.196Z,12.74
2022-11-02T16:54:21.201Z,12.78
2022-11-02T16:57:21.038Z,12.85
2022-11-02T17:00:19.059Z,12.90
2022-11-02T17:03:11.003Z,12.94
2022-11-02T17:06:00.098Z,12.95
2022-11-02T17:08:54.384Z,12.94
2022-11-02T17:11:44.726Z,12.97
2022-11-02T17:14:32.035Z,12.98
2022-11-02T17:17:24.277Z,12.99
2022-11-02T17:20:16.141Z,13.04
2022-11-02T17:23:08.376Z,13.07
2022-11-02T17:26:23.630Z,13.07
2022-11-02T17:29:25.591Z,13.11
2022-11-02T17:32:16.665Z,13.10
2022-11-02T17:35:05.133Z,13.10
2022-11-02T17:37:53.567Z,13.10
2022-11-02T17:40:39.514Z,13.11
2022-11-02T17:43:25.542Z,13.08
2022-11-02T17:46:11.518Z,13.09
2022-11-02T17:48:58.081Z,13.09
2022-11-02T17:51:44.330Z,13.09
2022-11-02T17:54:30.156Z,13.13
2022-11-02T17:57:16.189Z,13.13
2022-11-02T18:00:02.527Z,13.11
2022-11-02T18:02:59.347Z,13.03
2022-11-02T18:05:49.526Z,13.01
2022-11-02T18:08:57.226Z,12.99
2022-11-02T18:11:43.196Z,12.98
2022-11-02T18:14:30.203Z,12.97
2022-11-02T18:17:15.841Z,12.97
2022-11-02T18:20:02.456Z,12.91
2022-11-02T18:22:48.556Z,12.84
2022-11-02T18:25:34.931Z,12.74
2022-11-02T18:28:21.097Z,12.70
2022-11-02T18:31:08.845Z,12.69
2022-11-02T18:33:56.893Z,12.70
2022-11-02T18:36:43.665Z,12.70
2022-11-02T18:39:30.076Z,12.70
2022-11-02T18:42:16.928Z,12.69
2022-11-02T18:45:04.039Z,12.66
2022-11-02T18:47:50.861Z,12.61
2022-11-02T18:50:37.323Z,12.57
2022-11-02T18:53:24.560Z,12.53
2022-11-02T18:56:12.084Z,12.49
2022-11-02T18:58:58.741Z,12.45
2022-11-02T19:01:44.937Z,12.41
2022-11-02T19:04:31.607Z,12.35
2022-11-02T19:07:36.953Z,12.32
2022-11-02T19:10:24.720Z,12.21
2022-11-02T19:13:10.918Z,12.15
2022-11-02T19:15:57.726Z,12.11
2022-11-02T19:18:44.513Z,12.09
2022-11-02T19:21:32.074Z,12.08
2022-11-02T19:24:18.149Z,12.03
2022-11-02T19:27:04.345Z,11.97
2022-11-02T19:29:51.854Z,11.92
2022-11-02T19:32:38.215Z,11.86
2022-11-02T19:35:24.524Z,11.79
2022-11-02T19:38:13.010Z,11.73
2022-11-02T19:41:10.236Z,11.69
2022-11-02T19:43:58.093Z,11.62
2022-11-02T19:46:45.218Z,11.58
2022-11-02T19:49:31.991Z,11.52
2022-11-02T19:52:18.772Z,11.48
2022-11-02T19:55:06.066Z,11.46
2022-11-02T19:57:52.357Z,11.44
2022-11-02T20:00:39.226Z,11.40
2022-11-02T20:03:26.041Z,11.38
2022-11-02T20:06:19.290Z,11.35
2022-11-02T20:09:08.048Z,11.33
2022-11-02T20:11:55.227Z,11.33
2022-11-02T20:14:41.462Z,11.27
2022-11-02T20:17:38.103Z,11.23
2022-11-02T20:20:33.122Z,11.16
2022-11-02T20:23:20.463Z,11.13
2022-11-02T20:26:09.965Z,11.10
2022-11-02T20:28:56.629Z,11.08
2022-11-02T20:31:42.700Z,11.03
2022-11-02T20:34:29.024Z,10.99
2022-11-02T20:37:15.037Z,10.94
2022-11-02T20:40:01.257Z,10.91
2022-11-02T20:42:49.802Z,10.86
2022-11-02T20:45:36.493Z,10.81
2022-11-02T20:51:13.951Z,10.73
2022-11-02T20:54:01.253Z,10.69
2022-11-02T20:56:48.079Z,10.65
2022-11-02T20:59:34.533Z,10.64
2022-11-02T21:02:22.600Z,10.64
2022-11-02T21:05:09.270Z,10.65
2022-11-02T21:07:55.216Z,10.68
2022-11-02T21:10:41.223Z,10.72
2022-11-02T21:13:47.006Z,10.71
2022-11-02T21:16:34.603Z,10.72
2022-11-02T21:19:20.927Z,10.77
2022-11-02T21:22:07.124Z,10.84
2022-11-02T21:24:53.403Z,10.90
2022-11-02T21:27:39.630Z,10.91
2022-11-02T21:30:26.808Z,10.95
2022-11-02T21:33:12.412Z,11.00
2022-11-02T21:35:59.619Z,11.05
2022-11-02T21:38:47.490Z,11.09
2022-11-02T21:41:38.846Z,11.06
2022-11-02T21:44:25.274Z,11.02
2022-11-02T21:47:12.848Z,10.97
2022-11-02T21:50:02.872Z,10.93
2022-11-02T21:52:49.130Z,10.87
2022-11-02T21:55:35.343Z,10.84
2022-11-02T21:58:21.917Z,10.82
2022-11-02T22:01:33.163Z,10.79
2022-11-02T22:04:51.188Z,10.75
2022-11-02T22:07:57.163Z,10.66
2022-11-02T22:10:43.155Z,10.65
2022-11-02T22:13:35.590Z,10.64
2022-11-02T22:16:25.457Z,10.60
2022-11-02T22:19:15.640Z,10.54
2022-11-02T22:22:02.675Z,10.52
2022-11-02T22:24:49.450Z,10.49
2022-11-02T22:27:35.585Z,10.46
2022-11-02T22:30:22.509Z,10.41
2022-11-02T22:33:11.730Z,10.43
2022-11-02T22:35:57.675Z,10.41
2022-11-02T22:38:58.219Z,10.35
2022-11-02T22:41:48.860Z,10.28
2022-11-02T22:44:34.952Z,10.24
2022-11-02T22:47:21.012Z,10.22
2022-11-02T22:50:08.190Z,10.17
2022-11-02T22:52:55.775Z,10.17
2022-11-02T22:55:42.677Z,10.14
2022-11-02T22:58:31.004Z,10.09
2022-11-02T23:01:20.271Z,10.01
2022-11-02T23:04:07.261Z,9.99
2022-11-02T23:06:53.300Z,9.97
2022-11-02T23:09:40.400Z,9.95
2022-11-02T23:12:26.192Z,9.96
2022-11-02T23:15:12.723Z,9.92
2022-11-02T23:17:59.546Z,9.90
2022-11-02T23:20:52.793Z,9.89
2022-11-02T23:23:57.785Z,9.90
2022-11-02T23:26:46.744Z,9.89
2022-11-02T23:29:52.760Z,9.85
2022-11-02T23:32:40.161Z,9.79
2022-11-02T23:35:45.191Z,9.81
2022-11-02T23:38:51.779Z,9.80
2022-11-02T23:41:39.381Z,9.76
2022-11-02T23:44:30.403Z,9.74
2022-11-02T23:47:17.846Z,9.73
2022-11-02T23:50:04.887Z,9.70
2022-11-02T23:53:10.467Z,9.68
2022-11-02T23:56:16.173Z,9.67
2022-11-02T23:59:09.619Z,9.66
